Private Wetterstation Wechselburg
Wetterdaten: Woche 05.12.22 - 11.12.22 (KW49)
Datum Zeit Temp. +2m Bodentemp. Temp.+5cm Temp. Wind Windchill X Diff Temp. Feuchte +2m Feuchte +5cm Luftdruck Regen Wind Richtung Sonnenschein Taupunkt Windchill Windben
05.12.2022 00:00 1,7 C 5,6 C 2,7 C 3,1 C 3,1 C 1,4 C 89 % 95 % 1014,2 hPa 0,0 l/m 0,1 km/h (0 Bft) N 0,00 h 0,1 C 3,1 C 0,3 km/h (0 Bft)
05.12.2022 01:00 1,6 C 5,6 C 2,7 C 3,1 C 3,1 C 1,5 C 89 % 95 % 1014,1 hPa 0,0 l/m 0,1 km/h (0 Bft) N 0,00 h -0,0 C 3,1 C 0,5 km/h (0 Bft)
05.12.2022 02:00 1,6 C 5,6 C 2,7 C 3,1 C 3,1 C 1,5 C 89 % 95 % 1014,3 hPa 0,0 l/m 0,0 km/h (0 Bft) N 0,00 h -0,0 C 3,1 C 0,0 km/h (0 Bft)
05.12.2022 03:00 1,7 C 5,8 C 2,7 C 3,1 C 3,1 C 1,4 C 89 % 95 % 1014,2 hPa 0,0 l/m 0,0 km/h (0 Bft) N 0,00 h 0,0 C 3,1 C 0,0 km/h (0 Bft)
05.12.2022 04:00 1,6 C 5,8 C 2,7 C 3,1 C 3,1 C 1,5 C 89 % 95 % 1014,1 hPa 0,0 l/m 0,0 km/h (0 Bft) N 0,00 h 0,0 C 3,1 C 0,0 km/h (0 Bft)
05.12.2022 05:00 1,6 C 5,8 C 2,7 C 3,1 C 3,1 C 1,5 C 89 % 95 % 1014,0 hPa 0,7 l/m 0,5 km/h (0 Bft) S 0,00 h 0,0 C 3,1 C 1,9 km/h (1 Bft)
05.12.2022 06:00 1,3 C 5,8 C 2,3 C 2,7 C 2,7 C 1,3 C 89 % 95 % 1014,5 hPa 0,7 l/m 0,3 km/h (0 Bft) N 0,00 h -0,3 C 2,7 C 0,3 km/h (0 Bft)
05.12.2022 07:00 0,9 C 5,8 C 2,1 C 2,3 C 2,3 C 1,4 C 89 % 95 % 1015,0 hPa 0,0 l/m 0,7 km/h (0 Bft) SW 0,00 h -0,7 C 2,3 C 0,2 km/h (0 Bft)
05.12.2022 08:00 0,9 C 5,8 C 2,1 C 2,4 C 2,4 C 1,5 C 89 % 95 % 1015,3 hPa 0,0 l/m 0,2 km/h (0 Bft) N 0,83 h -0,6 C 2,4 C 0,4 km/h (0 Bft)
05.12.2022 09:00 1,1 C 5,8 C 2,4 C 2,8 C 2,8 C 1,7 C 90 % 95 % 1016,1 hPa 0,0 l/m 0,0 km/h (0 Bft) N 0,25 h -0,3 C 2,8 C 0,0 km/h (0 Bft)
05.12.2022 10:00 1,4 C 5,9 C 2,8 C 3,3 C 3,3 C 1,9 C 90 % 95 % 1016,3 hPa 0,0 l/m 0,0 km/h (0 Bft) N 0,00 h -0,1 C 3,3 C 0,0 km/h (0 Bft)
05.12.2022 11:00 1,6 C 5,9 C 3,1 C 3,5 C 3,5 C 1,9 C 89 % 95 % 1016,6 hPa 0,0 l/m 0,0 km/h (0 Bft) N 0,00 h 0,1 C 3,5 C 0,0 km/h (0 Bft)
05.12.2022 12:00 2,1 C 5,9 C 3,7 C 4,3 C 4,3 C 2,2 C 90 % 95 % 1016,6 hPa 0,0 l/m 0,2 km/h (0 Bft) N 0,00 h 0,6 C 4,3 C 0,3 km/h (0 Bft)
05.12.2022 13:00 2,5 C 5,9 C 3,9 C 4,8 C 4,8 C 2,3 C 90 % 95 % 1016,6 hPa 0,0 l/m 0,3 km/h (0 Bft) N 0,00 h 1,0 C 4,8 C 0,6 km/h (0 Bft)
05.12.2022 14:00 2,9 C 5,9 C 4,0 C 5,1 C 5,1 C 2,2 C 89 % 95 % 1016,8 hPa 0,0 l/m 1,7 km/h (1 Bft) S-SO 0,00 h 1,3 C 5,1 C 2,1 km/h (1 Bft)
05.12.2022 15:00 3,0 C 5,9 C 3,9 C 4,9 C 4,9 C 2,0 C 89 % 95 % 1016,7 hPa 0,0 l/m 0,8 km/h (0 Bft) SW 0,42 h 1,3 C 4,9 C 1,0 km/h (0 Bft)
05.12.2022 16:00 2,8 C 6,0 C 3,5 C 4,3 C 4,3 C 1,5 C 89 % 95 % 1016,7 hPa 0,0 l/m 0,1 km/h (0 Bft) N 0,00 h 1,2 C 4,3 C 0,0 km/h (0 Bft)
05.12.2022 17:00 2,7 C 6,0 C 3,2 C 3,9 C 3,9 C 1,2 C 89 % 95 % 1017,8 hPa 0,0 l/m 0,2 km/h (0 Bft) N 0,00 h 1,0 C 3,9 C 0,3 km/h (0 Bft)
05.12.2022 18:00 2,7 C 6,0 C 3,2 C 3,6 C 3,6 C 0,9 C 89 % 95 % 1018,0 hPa 0,0 l/m 0,7 km/h (0 Bft) W-SW 0,00 h 1,0 C 3,6 C 1,5 km/h (1 Bft)
05.12.2022 19:00 2,5 C 6,1 C 2,9 C 3,5 C 3,5 C 0,9 C 89 % 95 % 1018,3 hPa 0,0 l/m 0,9 km/h (0 Bft) S-SO 0,00 h 0,9 C 3,5 C 1,5 km/h (1 Bft)
05.12.2022 20:00 2,4 C 6,1 C 2,5 C 3,1 C 3,1 C 0,6 C 89 % 95 % 1018,7 hPa 0,0 l/m 0,3 km/h (0 Bft) N 0,00 h 0,8 C 3,1 C 0,8 km/h (0 Bft)
05.12.2022 21:00 2,3 C 6,1 C 2,2 C 2,8 C 2,8 C 0,5 C 89 % 95 % 1019,0 hPa 0,0 l/m 0,4 km/h (0 Bft) N 0,00 h 0,7 C 2,8 C 0,4 km/h (0 Bft)
05.12.2022 22:00 2,2 C 6,1 C 2,1 C 2,6 C 2,6 C 0,4 C 89 % 95 % 1019,0 hPa 0,0 l/m 0,2 km/h (0 Bft) N 0,00 h 0,6 C 2,6 C 0,0 km/h (0 Bft)
05.12.2022 23:00 2,1 C 6,1 C 2,2 C 2,8 C 2,8 C 0,8 C 89 % 95 % 1018,5 hPa 0,0 l/m 0,1 km/h (0 Bft) N 0,00 h 0,4 C 2,8 C 0,2 km/h (0 Bft)
06.12.2022 00:00 2,1 C 6,1 C 2,4 C 3,0 C 3,0 C 0,9 C 89 % 95 % 1017,9 hPa 0,0 l/m 0,0 km/h (0 Bft) N 0,00 h 0,5 C 3,0 C 0,0 km/h (0 Bft)
06.12.2022 01:00 2,2 C 6,1 C 2,5 C 3,2 C 3,2 C 1,1 C 89 % 95 % 1017,2 hPa 0,0 l/m 0,6 km/h (0 Bft) SW 0,00 h 0,5 C 3,2 C 1,8 km/h (1 Bft)
06.12.2022 02:00 2,3 C 6,2 C 2,6 C 3,3 C 3,3 C 1,0 C 89 % 95 % 1016,7 hPa 0,0 l/m 0,0 km/h (0 Bft) N 0,00 h 0,7 C 3,3 C 0,0 km/h (0 Bft)
06.12.2022 03:00 2,4 C 6,1 C 2,6 C 3,3 C 3,3 C 0,9 C 89 % 95 % 1016,1 hPa 0,0 l/m 0,8 km/h (0 Bft) SW 0,00 h 0,8 C 3,3 C 1,8 km/h (1 Bft)
06.12.2022 04:00 2,6 C 6,1 C 2,7 C 3,5 C 3,5 C 0,9 C 89 % 95 % 1015,5 hPa 0,0 l/m 1,8 km/h (1 Bft) S 0,00 h 1,0 C 3,5 C 1,9 km/h (1 Bft)
06.12.2022 05:00 2,8 C 6,1 C 2,7 C 3,4 C 3,4 C 0,6 C 89 % 95 % 1015,2 hPa 0,0 l/m 2,2 km/h (1 Bft) SW 0,00 h 1,2 C 3,4 C 4,0 km/h (1 Bft)
06.12.2022 06:00 2,7 C 6,1 C 2,5 C 3,1 C 3,1 C 0,4 C 89 % 95 % 1014,9 hPa 0,0 l/m 1,1 km/h (1 Bft) SW 0,00 h 1,1 C 3,1 C 1,5 km/h (1 Bft)
06.12.2022 07:00 2,7 C 6,1 C 2,4 C 3,0 C 3,0 C 0,4 C 89 % 95 % 1015,0 hPa 0,0 l/m 1,0 km/h (0 Bft) SW 0,00 h 1,0 C 3,0 C 1,6 km/h (1 Bft)
06.12.2022 08:00 2,6 C 6,1 C 2,3 C 2,8 C 2,8 C 0,2 C 89 % 95 % 1014,9 hPa 0,0 l/m 1,6 km/h (1 Bft) SW 0,10 h 1,0 C 2,8 C 2,8 km/h (1 Bft)
06.12.2022 09:00 2,4 C 6,1 C 2,2 C 2,4 C 2,4 C 0,1 C 89 % 95 % 1015,2 hPa 0,0 l/m 1,1 km/h (1 Bft) SW 0,00 h 0,7 C 2,4 C 1,4 km/h (1 Bft)
06.12.2022 10:00 2,2 C 6,1 C 2,3 C 2,5 C 2,5 C 0,3 C 89 % 95 % 1015,2 hPa 0,0 l/m 1,7 km/h (1 Bft) SW 0,00 h 0,6 C 2,5 C 2,9 km/h (1 Bft)
06.12.2022 11:00 2,0 C 6,1 C 2,5 C 2,4 C 2,4 C 0,4 C 89 % 95 % 1014,7 hPa 0,0 l/m 2,6 km/h (1 Bft) SW 0,00 h 0,3 C 2,4 C 4,2 km/h (1 Bft)
06.12.2022 12:00 2,0 C 6,0 C 2,4 C 2,0 C 1,9 C 0,1 C 89 % 95 % 1014,5 hPa 0,0 l/m 3,9 km/h (1 Bft) S 0,00 h 0,4 C 1,5 C 5,6 km/h (1 Bft)
06.12.2022 13:00 2,2 C 5,9 C 2,2 C 1,9 C 1,2 C 0,0 C 89 % 94 % 1014,5 hPa 0,0 l/m 5,2 km/h (1 Bft) SW 0,00 h 0,6 C -0,2 C 6,9 km/h (2 Bft)
06.12.2022 14:00 2,1 C 5,9 C 2,2 C 1,9 C 1,4 C 0,0 C 89 % 94 % 1014,3 hPa 0,0 l/m 4,8 km/h (1 Bft) W 0,00 h 0,5 C 0,5 C 5,6 km/h (1 Bft)
06.12.2022 15:00 2,1 C 5,9 C 1,8 C 1,8 C 1,4 C 0,0 C 89 % 94 % 1013,9 hPa 0,0 l/m 3,7 km/h (1 Bft) SW 0,00 h 0,5 C 1,3 C 5,1 km/h (1 Bft)
06.12.2022 16:00 1,9 C 5,9 C 1,6 C 1,8 C 1,5 C 0,0 C 89 % 95 % 1014,1 hPa 0,0 l/m 3,1 km/h (1 Bft) SW 0,00 h 0,3 C 1,5 C 3,8 km/h (1 Bft)
06.12.2022 17:00 1,6 C 5,9 C 1,5 C 1,4 C 0,8 C 0,0 C 89 % 95 % 1014,2 hPa 0,0 l/m 4,1 km/h (1 Bft) SW 0,00 h 0,0 C 0,7 C 4,9 km/h (1 Bft)
06.12.2022 18:00 1,4 C 5,8 C 1,5 C 1,6 C 1,5 C 0,2 C 89 % 95 % 1014,6 hPa 0,7 l/m 2,6 km/h (1 Bft) SW 0,00 h -0,2 C 1,5 C 3,4 km/h (1 Bft)
06.12.2022 19:00 1,3 C 5,8 C 1,6 C 1,5 C 1,4 C 0,2 C 89 % 95 % 1014,8 hPa 0,0 l/m 3,1 km/h (1 Bft) SW 0,00 h -0,3 C 1,4 C 3,6 km/h (1 Bft)
06.12.2022 20:00 1,2 C 5,8 C 1,6 C 1,8 C 1,8 C 0,6 C 89 % 95 % 1015,5 hPa 0,7 l/m 2,6 km/h (1 Bft) SW 0,00 h -0,4 C 1,8 C 3,4 km/h (1 Bft)
06.12.2022 21:00 1,2 C 5,8 C 1,7 C 1,5 C 1,5 C 0,4 C 89 % 95 % 1015,3 hPa 0,0 l/m 3,3 km/h (1 Bft) SW 0,00 h -0,4 C 1,5 C 3,9 km/h (1 Bft)
06.12.2022 22:00 1,1 C 5,8 C 1,7 C 1,8 C 1,8 C 0,7 C 89 % 95 % 1015,0 hPa 0,0 l/m 2,9 km/h (1 Bft) SW 0,00 h -0,5 C 1,8 C 3,7 km/h (1 Bft)
06.12.2022 23:00 1,1 C 5,8 C 1,7 C 1,5 C 1,5 C 0,4 C 89 % 95 % 1014,9 hPa 0,0 l/m 3,4 km/h (1 Bft) SW 0,00 h -0,5 C 1,5 C 4,7 km/h (1 Bft)
07.12.2022 00:00 0,8 C 5,8 C 1,4 C 1,2 C 1,2 C 0,4 C 89 % 95 % 1014,8 hPa 0,7 l/m 2,9 km/h (1 Bft) SW 0,00 h -0,8 C 1,2 C 3,5 km/h (1 Bft)
07.12.2022 01:00 0,3 C 5,7 C 1,0 C 1,1 C 1,1 C 0,7 C 89 % 95 % 1014,2 hPa 0,0 l/m 0,6 km/h (0 Bft) W-SW 0,00 h -1,3 C 1,1 C 1,2 km/h (1 Bft)
07.12.2022 02:00 0,3 C 5,7 C 0,1 C 0,4 C 0,2 C 0,1 C 89 % 95 % 1013,7 hPa 0,0 l/m 2,5 km/h (1 Bft) SW 0,00 h -1,3 C 0,2 C 3,6 km/h (1 Bft)
07.12.2022 03:00 -0,3 C 5,7 C -0,6 C -0,4 C -0,6 C 0,0 C 89 % 95 % 1013,4 hPa 0,0 l/m 0,9 km/h (0 Bft) S-SW 0,00 h -1,8 C -0,6 C 1,1 km/h (0 Bft)
07.12.2022 04:00 -0,5 C 5,6 C -0,5 C -0,4 C -0,4 C 0,1 C 89 % 95 % 1012,8 hPa 0,0 l/m 1,1 km/h (0 Bft) W-SW 0,00 h -2,1 C -0,4 C 1,6 km/h (1 Bft)
07.12.2022 05:00 -0,5 C 5,5 C -0,6 C -0,5 C -0,7 C 0,1 C 89 % 95 % 1012,1 hPa 0,0 l/m 1,8 km/h (1 Bft) O-SO 0,00 h -2,1 C -0,7 C 1,4 km/h (1 Bft)
07.12.2022 06:00 -0,0 C 5,5 C 0,1 C 0,2 C 0,1 C 0,3 C 89 % 95 % 1011,5 hPa 0,0 l/m 2,8 km/h (1 Bft) S-SO 0,00 h -1,6 C -0,0 C 5,5 km/h (1 Bft)
07.12.2022 07:00 0,3 C 5,6 C 0,4 C 0,2 C -0,2 C 0,0 C 89 % 95 % 1011,7 hPa 0,7 l/m 3,9 km/h (1 Bft) S 0,00 h -1,3 C -0,8 C 6,2 km/h (2 Bft)
07.12.2022 08:00 0,7 C 5,6 C 0,9 C 0,4 C -0,3 C 0,0 C 89 % 95 % 1011,8 hPa 0,0 l/m 5,7 km/h (1 Bft) SW 0,00 h -0,9 C -2,2 C 6,5 km/h (2 Bft)
07.12.2022 09:00 1,2 C 5,5 C 1,4 C 0,9 C 0,4 C 0,0 C 89 % 95 % 1011,9 hPa 0,0 l/m 5,9 km/h (2 Bft) SW 0,00 h -0,4 C -1,6 C 6,9 km/h (2 Bft)
07.12.2022 10:00 2,1 C 5,4 C 2,6 C 2,5 C 2,4 C 0,3 C 89 % 95 % 1012,5 hPa 0,0 l/m 6,0 km/h (2 Bft) SW 0,00 h 0,5 C 0,8 C 8,1 km/h (2 Bft)
07.12.2022 11:00 3,2 C 5,4 C 3,3 C 3,3 C 3,3 C 0,1 C 89 % 95 % 1012,3 hPa 0,0 l/m 5,6 km/h (1 Bft) SW 0,00 h 1,6 C 1,9 C 8,0 km/h (2 Bft)
07.12.2022 12:00 4,1 C 5,3 C 3,5 C 3,9 C 3,5 C 0,0 C 88 % 94 % 1012,1 hPa 0,0 l/m 6,2 km/h (2 Bft) SW 0,00 h 2,3 C 2,0 C 8,9 km/h (2 Bft)
07.12.2022 13:00 4,3 C 5,3 C 3,6 C 4,7 C 4,6 C 0,3 C 86 % 94 % 1011,7 hPa 0,0 l/m 4,1 km/h (1 Bft) SW 0,00 h 2,1 C 4,2 C 6,0 km/h (2 Bft)
07.12.2022 14:00 4,4 C 5,3 C 3,8 C 5,3 C 5,3 C 0,9 C 84 % 93 % 1011,8 hPa 0,0 l/m 2,3 km/h (1 Bft) W-SW 0,00 h 1,9 C 5,3 C 3,2 km/h (1 Bft)
07.12.2022 15:00 4,4 C 5,3 C 3,5 C 4,8 C 4,7 C 0,4 C 82 % 92 % 1011,8 hPa 0,0 l/m 3,2 km/h (1 Bft) W-SW 0,17 h 1,5 C 4,5 C 5,1 km/h (1 Bft)
07.12.2022 16:00 4,1 C 5,3 C 3,0 C 4,2 C 4,1 C 0,1 C 82 % 92 % 1011,6 hPa 0,0 l/m 2,5 km/h (1 Bft) S-SW 0,00 h 1,2 C 4,1 C 3,8 km/h (1 Bft)
07.12.2022 17:00 3,3 C 5,4 C 2,3 C 3,3 C 3,1 C 0,0 C 83 % 93 % 1012,2 hPa 0,0 l/m 1,2 km/h (1 Bft) SW 0,00 h 0,8 C 3,1 C 2,0 km/h (1 Bft)
07.12.2022 18:00 2,7 C 5,4 C 1,7 C 2,6 C 2,4 C 0,0 C 85 % 93 % 1012,1 hPa 0,0 l/m 1,6 km/h (1 Bft) SW 0,00 h 0,4 C 2,4 C 3,4 km/h (1 Bft)
07.12.2022 19:00 2,6 C 5,4 C 1,8 C 2,6 C 2,6 C 0,0 C 86 % 94 % 1012,4 hPa 0,0 l/m 1,4 km/h (1 Bft) SW 0,00 h 0,5 C 2,6 C 2,6 km/h (1 Bft)
07.12.2022 20:00 2,5 C 5,4 C 1,6 C 2,5 C 2,4 C 0,0 C 86 % 94 % 1012,0 hPa 0,0 l/m 1,2 km/h (1 Bft) S 0,00 h 0,4 C 2,4 C 2,2 km/h (1 Bft)
07.12.2022 21:00 2,6 C 5,4 C 1,6 C 2,5 C 2,5 C 0,0 C 86 % 94 % 1012,2 hPa 0,0 l/m 0,6 km/h (0 Bft) SW 0,00 h 0,5 C 2,5 C 2,2 km/h (1 Bft)
07.12.2022 22:00 2,6 C 5,4 C 1,6 C 2,5 C 2,4 C 0,0 C 85 % 93 % 1011,8 hPa 0,0 l/m 1,2 km/h (1 Bft) SW 0,00 h 0,3 C 2,4 C 2,5 km/h (1 Bft)
07.12.2022 23:00 2,5 C 5,4 C 1,6 C 2,4 C 2,4 C 0,0 C 85 % 92 % 1011,2 hPa 0,0 l/m 0,8 km/h (0 Bft) S-SW 0,00 h 0,2 C 2,4 C 1,7 km/h (1 Bft)
08.12.2022 00:00 2,5 C 5,4 C 1,8 C 2,5 C 2,5 C 0,0 C 85 % 92 % 1010,8 hPa 0,0 l/m 0,3 km/h (0 Bft) N 0,00 h 0,3 C 2,5 C 0,7 km/h (0 Bft)
08.12.2022 01:00 2,5 C 5,4 C 1,8 C 2,4 C 2,2 C 0,0 C 85 % 92 % 1010,3 hPa 0,0 l/m 0,4 km/h (0 Bft) S-SO 0,00 h 0,2 C 2,2 C 1,9 km/h (1 Bft)
08.12.2022 02:00 2,6 C 5,4 C 1,8 C 2,6 C 2,5 C 0,0 C 85 % 92 % 1009,9 hPa 0,0 l/m 1,8 km/h (1 Bft) S-SO 0,00 h 0,3 C 2,5 C 4,0 km/h (1 Bft)
08.12.2022 03:00 2,7 C 5,3 C 1,9 C 2,7 C 2,6 C 0,0 C 84 % 91 % 1009,4 hPa 0,0 l/m 0,9 km/h (0 Bft) SO 0,00 h 0,3 C 2,6 C 1,5 km/h (1 Bft)
08.12.2022 04:00 2,6 C 5,4 C 2,0 C 2,6 C 2,4 C 0,0 C 85 % 91 % 1009,2 hPa 0,0 l/m 1,1 km/h (1 Bft) S-SO 0,00 h 0,3 C 2,4 C 3,6 km/h (1 Bft)
08.12.2022 05:00 2,5 C 5,4 C 1,9 C 2,6 C 2,5 C 0,0 C 86 % 92 % 1008,4 hPa 0,0 l/m 1,4 km/h (1 Bft) S-SO 0,00 h 0,4 C 2,5 C 3,9 km/h (1 Bft)
08.12.2022 06:00 2,7 C 5,4 C 1,9 C 2,6 C 2,5 C 0,0 C 86 % 92 % 1008,1 hPa 0,0 l/m 1,7 km/h (1 Bft) SW 0,00 h 0,6 C 2,5 C 2,7 km/h (1 Bft)
08.12.2022 07:00 2,2 C 5,5 C 1,2 C 2,0 C 1,6 C 0,0 C 87 % 93 % 1006,9 hPa 0,0 l/m 1,1 km/h (1 Bft) S-SO 0,00 h 0,2 C 1,6 C 2,3 km/h (1 Bft)
08.12.2022 08:00 1,9 C 5,6 C 0,8 C 1,7 C 1,3 C 0,0 C 88 % 94 % 1008,5 hPa 0,0 l/m 0,9 km/h (0 Bft) SO 0,00 h 0,1 C 1,3 C 1,8 km/h (1 Bft)
08.12.2022 09:00 2,2 C 5,4 C 1,2 C 2,1 C 1,9 C 0,0 C 88 % 94 % 1008,3 hPa 0,0 l/m 1,4 km/h (1 Bft) S-SO 0,00 h 0,4 C 1,9 C 2,6 km/h (1 Bft)
08.12.2022 10:00 3,2 C 5,3 C 2,7 C 3,9 C 3,9 C 0,7 C 86 % 92 % 1008,6 hPa 0,0 l/m 2,2 km/h (1 Bft) S 0,00 h 1,1 C 3,9 C 2,7 km/h (1 Bft)
08.12.2022 11:00 3,8 C 5,3 C 3,8 C 4,9 C 4,9 C 1,1 C 83 % 88 % 1007,8 hPa 0,0 l/m 3,2 km/h (1 Bft) SO 0,00 h 1,2 C 4,9 C 8,5 km/h (2 Bft)
08.12.2022 12:00 4,3 C 5,3 C 4,2 C 5,5 C 5,5 C 1,2 C 80 % 84 % 1007,4 hPa 0,0 l/m 3,2 km/h (1 Bft) S-SO 0,00 h 1,2 C 5,4 C 5,7 km/h (1 Bft)
08.12.2022 13:00 4,3 C 5,3 C 4,2 C 5,4 C 5,4 C 1,0 C 79 % 83 % 1007,2 hPa 0,0 l/m 2,1 km/h (1 Bft) S-SO 0,00 h 1,0 C 5,4 C 4,2 km/h (1 Bft)
08.12.2022 14:00 4,2 C 5,3 C 3,9 C 5,0 C 5,0 C 0,8 C 80 % 84 % 1007,1 hPa 0,0 l/m 1,9 km/h (1 Bft) O-SO 0,00 h 1,0 C 5,0 C 3,4 km/h (1 Bft)
08.12.2022 15:00 4,0 C 5,3 C 3,4 C 4,3 C 4,3 C 0,3 C 80 % 85 % 1007,4 hPa 0,0 l/m 1,3 km/h (1 Bft) N-NO 0,08 h 0,8 C 4,3 C 1,7 km/h (1 Bft)
08.12.2022 16:00 3,7 C 5,4 C 3,0 C 3,7 C 3,6 C 0,1 C 81 % 86 % 1007,2 hPa 0,0 l/m 2,6 km/h (1 Bft) S 0,00 h 0,7 C 3,6 C 3,8 km/h (1 Bft)
08.12.2022 17:00 3,3 C 5,4 C 2,6 C 3,3 C 3,2 C 0,0 C 81 % 87 % 1007,4 hPa 0,0 l/m 2,3 km/h (1 Bft) S 0,00 h 0,4 C 3,2 C 4,5 km/h (1 Bft)
08.12.2022 18:00 3,4 C 5,4 C 2,8 C 3,5 C 3,5 C 0,2 C 81 % 86 % 1007,8 hPa 0,0 l/m 2,2 km/h (1 Bft) W-SW 0,00 h 0,4 C 3,5 C 2,7 km/h (1 Bft)
08.12.2022 19:00 3,3 C 5,4 C 2,7 C 3,5 C 3,5 C 0,2 C 81 % 85 % 1007,7 hPa 0,0 l/m 1,4 km/h (1 Bft) SO 0,00 h 0,3 C 3,5 C 2,7 km/h (1 Bft)
08.12.2022 20:00 3,1 C 5,4 C 2,5 C 3,0 C 2,8 C 0,0 C 81 % 86 % 1008,4 hPa 0,0 l/m 1,0 km/h (0 Bft) W-SW 0,00 h 0,1 C 2,8 C 2,4 km/h (1 Bft)
08.12.2022 21:00 2,6 C 5,5 C 2,0 C 2,4 C 2,0 C 0,0 C 83 % 89 % 1008,6 hPa 0,0 l/m 0,2 km/h (0 Bft) N 0,00 h 0,0 C 2,0 C 0,0 km/h (0 Bft)
08.12.2022 22:00 2,3 C 5,5 C 1,8 C 2,2 C 2,0 C 0,0 C 85 % 90 % 1009,0 hPa 0,0 l/m 0,0 km/h (0 Bft) N 0,00 h 0,0 C 2,0 C 0,0 km/h (0 Bft)
08.12.2022 23:00 2,1 C 5,6 C 1,7 C 2,1 C 2,0 C 0,0 C 86 % 91 % 1009,0 hPa 0,0 l/m 0,1 km/h (0 Bft) N 0,00 h -0,0 C 2,0 C 0,3 km/h (0 Bft)
09.12.2022 00:00 2,0 C 5,6 C 1,6 C 2,0 C 2,0 C 0,0 C 87 % 92 % 1008,5 hPa 0,0 l/m 0,3 km/h (0 Bft) N 0,00 h 0,1 C 2,0 C 2,1 km/h (1 Bft)
09.12.2022 01:00 1,8 C 5,7 C 1,3 C 1,7 C 1,4 C 0,0 C 87 % 92 % 1008,3 hPa 0,0 l/m 0,0 km/h (0 Bft) N 0,00 h -0,1 C 1,4 C 0,0 km/h (0 Bft)
09.12.2022 02:00 1,4 C 5,8 C 0,9 C 1,3 C 1,0 C 0,0 C 88 % 93 % 1008,3 hPa 0,0 l/m 0,0 km/h (0 Bft) N 0,00 h -0,4 C 1,0 C 0,0 km/h (0 Bft)
09.12.2022 03:00 1,2 C 5,7 C 0,8 C 1,1 C 0,9 C 0,0 C 88 % 93 % 1008,1 hPa 0,0 l/m 0,0 km/h (0 Bft) N 0,00 h -0,5 C 0,9 C 0,0 km/h (0 Bft)
09.12.2022 04:00 1,2 C 5,7 C 0,7 C 1,1 C 0,8 C 0,0 C 89 % 94 % 1007,6 hPa 0,0 l/m 0,0 km/h (0 Bft) N 0,00 h -0,4 C 0,8 C 0,0 km/h (0 Bft)
09.12.2022 05:00 1,0 C 5,7 C 0,4 C 0,9 C 0,5 C 0,0 C 89 % 94 % 1007,1 hPa 0,0 l/m 0,0 km/h (0 Bft) N 0,00 h -0,6 C 0,5 C 0,0 km/h (0 Bft)
09.12.2022 06:00 0,8 C 5,7 C 0,5 C 0,8 C 0,7 C 0,0 C 89 % 95 % 1007,1 hPa 0,0 l/m 0,0 km/h (0 Bft) N 0,00 h -0,8 C 0,7 C 0,0 km/h (0 Bft)
09.12.2022 07:00 0,8 C 5,7 C 0,6 C 0,8 C 0,7 C 0,0 C 89 % 95 % 1007,0 hPa 0,0 l/m 0,0 km/h (0 Bft) N 0,00 h -0,8 C 0,7 C 0,0 km/h (0 Bft)
09.12.2022 08:00 0,7 C 5,7 C 0,7 C 0,8 C 0,8 C 0,1 C 89 % 95 % 1007,3 hPa 0,0 l/m 0,0 km/h (0 Bft) N 0,00 h -0,9 C 0,8 C 0,0 km/h (0 Bft)
09.12.2022 09:00 0,7 C 5,7 C 0,9 C 1,1 C 1,1 C 0,4 C 89 % 95 % 1007,3 hPa 0,0 l/m 0,0 km/h (0 Bft) N 0,00 h -0,9 C 1,1 C 0,0 km/h (0 Bft)
09.12.2022 10:00 0,9 C 5,7 C 1,6 C 2,0 C 2,0 C 1,0 C 89 % 94 % 1007,3 hPa 0,0 l/m 0,4 km/h (0 Bft) N 0,00 h -0,7 C 2,0 C 0,7 km/h (0 Bft)
09.12.2022 11:00 1,4 C 5,6 C 2,1 C 2,9 C 2,9 C 1,5 C 89 % 94 % 1006,5 hPa 0,0 l/m 0,0 km/h (0 Bft) N 0,00 h -0,2 C 2,9 C 0,0 km/h (0 Bft)
09.12.2022 12:00 2,0 C 5,5 C 2,6 C 3,5 C 3,5 C 1,6 C 89 % 92 % 1006,2 hPa 0,0 l/m 0,3 km/h (0 Bft) N 0,00 h 0,4 C 3,5 C 0,7 km/h (0 Bft)
09.12.2022 13:00 2,6 C 5,5 C 2,8 C 3,7 C 3,7 C 1,1 C 89 % 91 % 1005,8 hPa 0,0 l/m 1,0 km/h (0 Bft) NO 0,00 h 1,0 C 3,7 C 1,2 km/h (1 Bft)
09.12.2022 14:00 2,7 C 5,5 C 2,5 C 3,3 C 3,3 C 0,6 C 88 % 90 % 1005,8 hPa 0,0 l/m 0,7 km/h (0 Bft) O-NO 0,00 h 1,0 C 3,3 C 1,5 km/h (1 Bft)
09.12.2022 15:00 2,4 C 5,5 C 1,9 C 2,4 C 2,4 C 0,1 C 87 % 90 % 1005,5 hPa 0,0 l/m 0,2 km/h (0 Bft) N 0,00 h 0,5 C 2,4 C 0,3 km/h (0 Bft)
09.12.2022 16:00 1,9 C 5,5 C 1,4 C 1,9 C 1,8 C 0,0 C 87 % 91 % 1005,6 hPa 0,0 l/m 0,1 km/h (0 Bft) N 0,00 h -0,0 C 1,8 C 0,3 km/h (0 Bft)
09.12.2022 17:00 1,5 C 5,6 C 1,1 C 1,4 C 1,3 C 0,0 C 88 % 92 % 1005,8 hPa 0,0 l/m 0,1 km/h (0 Bft) N 0,00 h -0,3 C 1,3 C 0,2 km/h (0 Bft)
09.12.2022 18:00 1,5 C 5,6 C 1,1 C 1,4 C 1,3 C 0,0 C 88 % 93 % 1005,5 hPa 0,0 l/m 0,1 km/h (0 Bft) N 0,00 h -0,3 C 1,3 C 0,0 km/h (0 Bft)
09.12.2022 19:00 1,4 C 5,6 C 1,1 C 1,4 C 1,4 C 0,0 C 89 % 93 % 1006,3 hPa 0,0 l/m 0,3 km/h (0 Bft) N 0,00 h -0,3 C 1,4 C 0,7 km/h (0 Bft)
09.12.2022 20:00 1,2 C 5,6 C 1,0 C 1,3 C 1,3 C 0,1 C 89 % 93 % 1005,9 hPa 0,0 l/m 0,6 km/h (0 Bft) O-NO 0,00 h -0,4 C 1,3 C 1,5 km/h (1 Bft)
09.12.2022 21:00 1,2 C 5,6 C 0,9 C 1,2 C 1,2 C 0,0 C 89 % 93 % 1006,4 hPa 0,0 l/m 0,1 km/h (0 Bft) N 0,00 h -0,4 C 1,2 C 0,0 km/h (0 Bft)
09.12.2022 22:00 1,1 C 5,5 C 0,8 C 1,1 C 1,1 C 0,0 C 89 % 93 % 1006,4 hPa 0,0 l/m 0,1 km/h (0 Bft) N 0,00 h -0,5 C 1,1 C 0,0 km/h (0 Bft)
09.12.2022 23:00 1,1 C 5,5 C 0,8 C 1,1 C 1,1 C 0,0 C 89 % 93 % 1006,8 hPa 0,0 l/m 0,0 km/h (0 Bft) N 0,00 h -0,5 C 1,1 C 0,0 km/h (0 Bft)
10.12.2022 00:00 0,9 C 5,5 C 0,6 C 0,9 C 0,9 C 0,0 C 89 % 93 % 1006,6 hPa 0,0 l/m 0,0 km/h (0 Bft) N 0,00 h -0,7 C 0,9 C 0,0 km/h (0 Bft)
10.12.2022 01:00 0,7 C 5,5 C 0,4 C 0,7 C 0,7 C 0,0 C 89 % 93 % 1006,7 hPa 0,0 l/m 0,9 km/h (0 Bft) O-NO 0,00 h -0,9 C 0,7 C 2,1 km/h (1 Bft)
10.12.2022 02:00 0,4 C 5,5 C 0,1 C 0,4 C 0,3 C 0,0 C 89 % 94 % 1006,9 hPa 0,0 l/m 1,0 km/h (0 Bft) O-NO 0,00 h -1,2 C 0,3 C 1,0 km/h (0 Bft)
10.12.2022 03:00 -0,0 C 5,5 C -0,1 C 0,0 C -0,0 C 0,0 C 89 % 94 % 1006,9 hPa 0,0 l/m 1,8 km/h (1 Bft) O-NO 0,00 h -1,6 C -0,0 C 2,6 km/h (1 Bft)
10.12.2022 04:00 -0,1 C 5,4 C -0,1 C 0,1 C 0,1 C 0,2 C 89 % 94 % 1007,0 hPa 0,0 l/m 1,0 km/h (0 Bft) NO 0,00 h -1,7 C 0,1 C 1,1 km/h (1 Bft)
10.12.2022 05:00 -0,1 C 5,4 C -0,1 C 0,2 C 0,2 C 0,3 C 89 % 94 % 1006,7 hPa 0,0 l/m 0,0 km/h (0 Bft) N 0,00 h -1,7 C 0,2 C 0,0 km/h (0 Bft)
10.12.2022 06:00 -0,3 C 5,4 C -0,2 C -0,0 C -0,0 C 0,3 C 89 % 94 % 1006,5 hPa 0,0 l/m 0,0 km/h (0 Bft) N 0,00 h -1,9 C -0,0 C 0,0 km/h (0 Bft)
10.12.2022 07:00 -0,4 C 5,4 C -0,3 C -0,2 C -0,2 C 0,3 C 89 % 94 % 1006,9 hPa 0,0 l/m 0,0 km/h (0 Bft) N 0,00 h -2,0 C -0,2 C 0,0 km/h (0 Bft)
10.12.2022 08:00 -0,5 C 5,3 C -0,3 C -0,2 C -0,2 C 0,3 C 89 % 94 % 1007,1 hPa 0,0 l/m 0,0 km/h (0 Bft) N 0,17 h -2,1 C -0,2 C 0,0 km/h (0 Bft)
10.12.2022 09:00 -0,5 C 5,3 C -0,3 C -0,0 C -0,0 C 0,5 C 89 % 94 % 1007,6 hPa 0,0 l/m 0,1 km/h (0 Bft) N 0,00 h -2,1 C -0,0 C 0,2 km/h (0 Bft)
10.12.2022 10:00 -0,7 C 5,3 C -0,1 C 0,3 C 0,3 C 1,0 C 89 % 94 % 1008,2 hPa 0,0 l/m 0,2 km/h (0 Bft) N 0,00 h -2,3 C 0,3 C 0,2 km/h (0 Bft)
10.12.2022 11:00 -0,7 C 5,2 C -0,0 C 0,4 C 0,4 C 1,1 C 89 % 94 % 1008,0 hPa 0,0 l/m 0,1 km/h (0 Bft) N 0,00 h -2,3 C 0,4 C 0,2 km/h (0 Bft)
10.12.2022 12:00 -0,7 C 5,2 C -0,0 C 0,5 C 0,5 C 1,2 C 89 % 94 % 1008,1 hPa 0,0 l/m 0,2 km/h (0 Bft) N 0,00 h -2,3 C 0,5 C 0,7 km/h (0 Bft)
10.12.2022 13:00 -0,7 C 5,2 C -0,1 C 0,4 C 0,4 C 1,0 C 89 % 94 % 1008,7 hPa 0,0 l/m 0,1 km/h (0 Bft) N 0,00 h -2,2 C 0,4 C 0,3 km/h (0 Bft)
10.12.2022 14:00 -0,7 C 5,1 C -0,4 C -0,2 C -0,2 C 0,5 C 89 % 94 % 1008,5 hPa 0,7 l/m 0,2 km/h (0 Bft) N 0,00 h -2,3 C -0,2 C 0,8 km/h (0 Bft)
10.12.2022 15:00 -0,8 C 5,1 C -0,7 C -0,6 C -0,6 C 0,2 C 89 % 94 % 1008,8 hPa 0,0 l/m 0,3 km/h (0 Bft) N 0,08 h -2,4 C -0,6 C 1,0 km/h (0 Bft)
10.12.2022 16:00 -0,9 C 5,1 C -1,0 C -0,9 C -0,9 C 0,0 C 89 % 94 % 1009,4 hPa 0,0 l/m 0,3 km/h (0 Bft) N 0,00 h -2,5 C -0,9 C 0,0 km/h (0 Bft)
10.12.2022 17:00 -1,0 C 5,0 C -1,1 C -1,0 C -1,1 C 0,0 C 89 % 94 % 1009,9 hPa 0,0 l/m 0,2 km/h (0 Bft) N 0,00 h -2,6 C -1,1 C 0,7 km/h (0 Bft)
10.12.2022 18:00 -1,1 C 5,0 C -1,3 C -1,1 C -1,2 C 0,0 C 89 % 94 % 1009,8 hPa 0,0 l/m 0,1 km/h (0 Bft) N 0,00 h -2,7 C -1,2 C 0,1 km/h (0 Bft)
10.12.2022 19:00 -1,3 C 5,0 C -1,5 C -1,3 C -1,4 C 0,0 C 89 % 94 % 1009,9 hPa 0,0 l/m 0,1 km/h (0 Bft) N 0,00 h -2,9 C -1,4 C 0,3 km/h (0 Bft)
10.12.2022 20:00 -1,4 C 4,9 C -1,7 C -1,5 C -1,7 C 0,0 C 89 % 94 % 1010,2 hPa 0,0 l/m 0,0 km/h (0 Bft) N 0,00 h -3,0 C -1,7 C 0,0 km/h (0 Bft)
10.12.2022 21:00 -1,5 C 4,9 C -1,6 C -1,5 C -1,6 C 0,0 C 89 % 94 % 1010,5 hPa 0,0 l/m 0,0 km/h (0 Bft) N 0,00 h -3,1 C -1,6 C 0,0 km/h (0 Bft)
10.12.2022 22:00 -1,6 C 4,9 C -1,7 C -1,6 C -1,7 C 0,0 C 90 % 94 % 1010,7 hPa 0,0 l/m 0,0 km/h (0 Bft) N 0,00 h -3,1 C -1,7 C 0,0 km/h (0 Bft)
10.12.2022 23:00 -1,8 C 4,8 C -1,9 C -1,8 C -1,9 C 0,0 C 90 % 94 % 1010,3 hPa 0,0 l/m 0,2 km/h (0 Bft) N 0,00 h -3,2 C -1,9 C 0,3 km/h (0 Bft)
11.12.2022 00:00 -2,0 C 4,7 C -2,3 C -2,1 C -2,3 C 0,0 C 89 % 94 % 1010,2 hPa 0,0 l/m 0,0 km/h (0 Bft) N 0,00 h -3,6 C -2,3 C 0,3 km/h (0 Bft)
11.12.2022 01:00 -2,5 C 4,7 C -2,7 C -2,6 C -2,7 C 0,0 C 89 % 94 % 1010,1 hPa 0,0 l/m 0,0 km/h (0 Bft) N 0,00 h -4,0 C -2,7 C 0,2 km/h (0 Bft)
11.12.2022 02:00 -2,6 C 4,6 C -2,8 C -2,6 C -2,7 C 0,0 C 89 % 94 % 1010,1 hPa 0,0 l/m 0,0 km/h (0 Bft) N 0,00 h -4,2 C -2,7 C 0,0 km/h (0 Bft)
11.12.2022 03:00 -2,7 C 4,6 C -2,9 C -2,7 C -2,8 C 0,0 C 89 % 94 % 1010,3 hPa 0,0 l/m 0,0 km/h (0 Bft) N 0,00 h -4,3 C -2,8 C 0,0 km/h (0 Bft)
11.12.2022 04:00 -2,9 C 4,5 C -3,0 C -2,9 C -3,0 C 0,0 C 89 % 94 % 1010,1 hPa 0,0 l/m 0,1 km/h (0 Bft) N 0,00 h -4,5 C -3,0 C 0,3 km/h (0 Bft)
11.12.2022 05:00 -3,2 C 4,4 C -3,2 C -3,2 C -3,3 C 0,0 C 89 % 93 % 1010,0 hPa 0,0 l/m 0,3 km/h (0 Bft) N 0,00 h -4,7 C -3,3 C 1,3 km/h (1 Bft)
11.12.2022 06:00 -3,5 C 4,3 C -3,6 C -3,6 C -3,8 C 0,0 C 89 % 93 % 1009,4 hPa 0,0 l/m 0,1 km/h (0 Bft) N 0,00 h -5,0 C -3,8 C 0,3 km/h (0 Bft)
11.12.2022 07:00 -3,6 C 4,2 C -3,7 C -3,7 C -3,9 C 0,0 C 89 % 93 % 1009,5 hPa 0,0 l/m 0,0 km/h (0 Bft) N 0,00 h -5,1 C -3,9 C 0,0 km/h (0 Bft)
11.12.2022 08:00 -3,6 C 4,1 C -3,6 C -3,7 C -3,8 C 0,0 C 89 % 93 % 1009,5 hPa 0,0 l/m 0,0 km/h (0 Bft) N 0,00 h -5,1 C -3,8 C 0,0 km/h (0 Bft)
11.12.2022 09:00 -3,3 C 4,1 C -3,0 C -3,0 C -3,0 C 0,3 C 89 % 92 % 1009,9 hPa 0,0 l/m 0,0 km/h (0 Bft) N 0,00 h -4,9 C -3,0 C 0,0 km/h (0 Bft)
11.12.2022 10:00 -2,8 C 4,0 C -2,1 C -1,5 C -1,5 C 1,3 C 89 % 91 % 1009,7 hPa 0,0 l/m 0,1 km/h (0 Bft) N 0,00 h -4,3 C -1,5 C 0,2 km/h (0 Bft)
11.12.2022 11:00 -2,7 C 3,9 C -2,1 C -1,7 C -1,7 C 1,0 C 88 % 89 % 1009,6 hPa 0,0 l/m 0,0 km/h (0 Bft) N 0,00 h -4,5 C -1,7 C 0,1 km/h (0 Bft)
11.12.2022 12:00 -2,6 C 3,8 C -1,7 C -1,3 C -1,3 C 1,3 C 87 % 89 % 1010,1 hPa 0,0 l/m 0,0 km/h (0 Bft) N 0,00 h -4,4 C -1,3 C 0,0 km/h (0 Bft)
11.12.2022 13:00 -2,8 C 3,7 C -2,1 C -1,9 C -1,9 C 0,9 C 87 % 88 % 1009,0 hPa 0,0 l/m 0,0 km/h (0 Bft) N 0,00 h -4,7 C -1,9 C 0,0 km/h (0 Bft)
11.12.2022 14:00 -3,3 C 3,6 C -3,0 C -3,1 C -3,2 C 0,2 C 86 % 89 % 1008,9 hPa 0,0 l/m 0,0 km/h (0 Bft) N 0,00 h -5,3 C -3,2 C 0,0 km/h (0 Bft)
11.12.2022 15:00 -3,5 C 3,5 C -3,3 C -3,4 C -3,5 C 0,1 C 86 % 89 % 1008,8 hPa 0,0 l/m 0,0 km/h (0 Bft) N 0,00 h -5,5 C -3,5 C 0,0 km/h (0 Bft)
11.12.2022 16:00 -3,7 C 3,5 C -3,7 C -3,7 C -4,0 C 0,0 C 85 % 90 % 1009,3 hPa 0,0 l/m 0,0 km/h (0 Bft) N 0,00 h -5,8 C -4,0 C 0,0 km/h (0 Bft)
11.12.2022 17:00 -3,8 C 3,5 C -3,9 C -3,9 C -4,0 C 0,0 C 86 % 91 % 1009,1 hPa 0,0 l/m 0,0 km/h (0 Bft) N 0,00 h -5,8 C -4,0 C 0,0 km/h (0 Bft)
11.12.2022 18:00 -4,0 C 3,5 C -3,9 C -4,0 C -4,0 C 0,0 C 86 % 91 % 1009,2 hPa 0,0 l/m 0,0 km/h (0 Bft) N 0,00 h -5,9 C -4,0 C 0,0 km/h (0 Bft)
11.12.2022 19:00 -3,9 C 3,5 C -3,8 C -3,9 C -4,0 C 0,0 C 87 % 92 % 1009,2 hPa 0,0 l/m 0,0 km/h (0 Bft) N 0,00 h -5,8 C -4,0 C 0,0 km/h (0 Bft)
11.12.2022 20:00 -3,8 C 3,4 C -3,8 C -3,9 C -4,0 C 0,0 C 88 % 92 % 1009,1 hPa 0,0 l/m 0,0 km/h (0 Bft) N 0,00 h -5,5 C -4,0 C 0,0 km/h (0 Bft)
11.12.2022 21:00 -3,7 C 3,4 C -3,8 C -3,8 C -4,0 C 0,0 C 88 % 92 % 1009,5 hPa 0,0 l/m 0,0 km/h (0 Bft) N 0,00 h -5,4 C -4,0 C 0,0 km/h (0 Bft)
11.12.2022 22:00 -3,8 C 3,4 C -3,8 C -3,8 C -4,0 C 0,0 C 88 % 92 % 1009,7 hPa 0,0 l/m 0,0 km/h (0 Bft) N 0,00 h -5,5 C -4,0 C 0,0 km/h (0 Bft)
11.12.2022 23:00 -3,9 C 3,4 C -4,0 C -4,0 C -4,1 C 0,0 C 88 % 93 % 1009,4 hPa 0,0 l/m 0,0 km/h (0 Bft) N 0,00 h -5,6 C -4,1 C 0,0 km/h (0 Bft)
Min-Datum _ 11.12.22 11.12.22 11.12.22 11.12.22 11.12.22 05.12.22 08.12.22 08.12.22 09.12.22 - 05.12.22 - - 11.12.22 11.12.22 05.12.22
_ Min-Zeit 18:05 23:35 23:25 23:30 23:20 22:41 13:35 12:50 18:00 - 00:10 - - 18:05 23:20 00:00
Minimum _ -4,0 C 3,3 C -4,1 C -4,1 C -4,2 C 0,0 C 78 % 83 % 1005,2 hPa - 0,0 km/h (0 Bft) - - -6,0 C -4,2 C 0,0 km/h (0 Bft)
Max-Datum _ 07.12.22 06.12.22 08.12.22 08.12.22 08.12.22 05.12.22 05.12.22 07.12.22 05.12.22 05.12.22 07.12.22 - 05.12.22 07.12.22 08.12.22 08.12.22
_ Max-Zeit 13:25 00:55 11:50 12:00 12:00 12:50 07:40 03:15 21:20 05:45 12:25 - 08:11 12:35 12:00 11:35
Maximum _ 4,5 C 6,2 C 4,3 C 5,9 C 5,9 C 2,5 C 90 % 96 % 1019,4 hPa 0,7 l/m 8,5 km/h
SW (2 Bft)
- 0,10 h 2,5 C 5,9 C 19,8 km/h
SO (3 Bft)
Durchschnitt _ 0,9 C 5,4 C 0,9 C 1,3 C 1,2 C 0,4 C 88 % 93 % 1011,0 hPa #4,8 l/m 1,1 km/h (0 Bft) SW #2:06 h -0,9 C 1,2 C 1,7 km/h (1 Bft)
2022 www.wetterstation-wechselburg.de